createdAt,value
2018-02-03T12:17:26.908Z,4.57
2018-02-03T12:18:26.837Z,4.56
2018-02-03T12:19:26.571Z,4.61
2018-02-03T12:20:26.580Z,4.58
2018-02-03T12:21:26.790Z,4.55
2018-02-03T12:22:26.562Z,4.56
2018-02-03T12:23:26.893Z,4.61
2018-02-03T12:24:26.707Z,4.62
2018-02-03T12:25:26.845Z,4.65
2018-02-03T12:26:26.839Z,4.63
2018-02-03T12:27:26.986Z,4.69
2018-02-03T12:28:26.876Z,4.69
2018-02-03T12:29:27.051Z,4.69
2018-02-03T12:30:28.608Z,4.68
2018-02-03T12:31:26.632Z,4.69
2018-02-03T12:32:26.886Z,4.71
2018-02-03T12:33:28.093Z,4.68
2018-02-03T12:34:28.182Z,4.71
2018-02-03T12:35:28.170Z,4.67
2018-02-03T12:36:26.607Z,4.71
2018-02-03T12:37:26.585Z,4.68
2018-02-03T12:38:27.907Z,4.71
2018-02-03T12:39:26.660Z,4.67
2018-02-03T12:40:26.707Z,4.72
2018-02-03T12:41:26.728Z,4.67
2018-02-03T12:42:26.767Z,4.71
2018-02-03T12:43:26.577Z,4.72
2018-02-03T12:44:26.783Z,4.69
2018-02-03T12:45:26.598Z,4.69
2018-02-03T12:46:26.738Z,4.75
2018-02-03T12:47:26.714Z,4.72
2018-02-03T12:48:26.785Z,4.73
2018-02-03T12:49:26.693Z,4.72
2018-02-03T12:50:26.702Z,4.67
2018-02-03T12:51:26.668Z,4.67
2018-02-03T12:52:26.801Z,4.63
2018-02-03T12:53:26.774Z,4.65
2018-02-03T12:54:26.639Z,4.66
2018-02-03T12:55:26.820Z,4.67
2018-02-03T12:56:26.773Z,4.72
2018-02-03T12:57:26.677Z,4.69
2018-02-03T12:59:26.709Z,4.7
2018-02-03T13:00:26.644Z,4.74
2018-02-03T13:01:26.649Z,4.73
2018-02-03T13:02:26.600Z,4.75
2018-02-03T13:03:26.731Z,4.79
2018-02-03T13:04:26.628Z,4.77
2018-02-03T13:05:26.753Z,4.79
2018-02-03T13:06:26.719Z,4.78
2018-02-03T13:07:26.613Z,4.8
2018-02-03T13:08:26.573Z,4.76
2018-02-03T13:09:26.489Z,4.79
2018-02-03T13:10:26.563Z,4.79
2018-02-03T13:11:26.712Z,4.79
2018-02-03T13:12:26.494Z,4.75
2018-02-03T13:13:26.759Z,4.76
2018-02-03T13:14:26.780Z,4.74
2018-02-03T13:15:26.731Z,4.75
2018-02-03T13:16:29.748Z,4.78
2018-02-03T13:17:28.406Z,4.74
2018-02-03T13:18:26.597Z,4.79
2018-02-03T13:19:26.447Z,4.76
2018-02-03T13:20:26.354Z,4.81
2018-02-03T13:21:26.538Z,4.87
2018-02-03T13:22:26.598Z,4.88
2018-02-03T13:23:26.755Z,4.92
2018-02-03T13:24:26.607Z,4.98
2018-02-03T13:25:26.621Z,4.94
2018-02-03T13:26:26.811Z,4.91
2018-02-03T13:27:26.707Z,4.96
2018-02-03T13:28:27.938Z,4.92
2018-02-03T13:29:26.715Z,4.97
2018-02-03T13:30:26.595Z,4.95
2018-02-03T13:31:26.495Z,4.94
2018-02-03T13:32:26.608Z,4.92
2018-02-03T13:33:28.300Z,4.96
2018-02-03T13:34:28.257Z,4.95
2018-02-03T13:35:26.462Z,4.92
2018-02-03T13:36:26.764Z,4.92
2018-02-03T13:37:28.561Z,4.88
2018-02-03T13:38:26.533Z,4.91
2018-02-03T13:39:26.512Z,4.93
2018-02-03T13:40:26.481Z,4.92
2018-02-03T13:41:26.438Z,4.92
2018-02-03T13:42:26.525Z,4.94
2018-02-03T13:43:26.533Z,4.92
2018-02-03T13:44:26.603Z,4.92
2018-02-03T13:45:26.654Z,4.92
2018-02-03T13:46:26.407Z,4.92
2018-02-03T13:47:26.390Z,4.92
2018-02-03T13:48:26.714Z,4.88
2018-02-03T13:49:26.834Z,4.92
2018-02-03T13:50:26.731Z,4.92
2018-02-03T13:51:26.841Z,4.92
2018-02-03T13:52:26.578Z,4.86
2018-02-03T13:53:28.336Z,4.86
2018-02-03T13:54:26.795Z,4.86
2018-02-03T13:55:26.518Z,4.85
2018-02-03T13:56:26.797Z,4.84
2018-02-03T13:57:26.562Z,4.8
2018-02-03T13:58:26.835Z,4.83
2018-02-03T13:59:26.585Z,4.79
2018-02-03T14:00:26.671Z,4.79
2018-02-03T14:01:26.563Z,4.8
2018-02-03T14:02:26.711Z,4.79
2018-02-03T14:03:26.799Z,4.81
2018-02-03T14:04:26.566Z,4.84
2018-02-03T14:05:26.574Z,4.81
2018-02-03T14:06:26.933Z,4.81
2018-02-03T14:07:26.745Z,4.82
2018-02-03T14:08:26.717Z,4.81
2018-02-03T14:09:26.509Z,4.81
2018-02-03T14:10:26.742Z,4.81
2018-02-03T14:11:26.569Z,4.83
2018-02-03T14:12:26.601Z,4.81
2018-02-03T14:13:26.635Z,4.84
2018-02-03T14:14:26.673Z,4.81
2018-02-03T14:15:26.643Z,4.84
2018-02-03T14:16:26.655Z,4.83
2018-02-03T14:17:26.661Z,4.81
2018-02-03T14:18:26.767Z,4.85
2018-02-03T14:19:26.639Z,4.8
2018-02-03T14:20:26.840Z,4.79
2018-02-03T14:21:26.782Z,4.8
2018-02-03T14:22:26.852Z,4.8
2018-02-03T14:23:26.743Z,4.79
2018-02-03T14:24:26.685Z,4.79
2018-02-03T14:25:26.686Z,4.77
2018-02-03T14:26:26.883Z,4.81
2018-02-03T14:27:26.735Z,4.81
2018-02-03T14:28:26.840Z,4.79
2018-02-03T14:29:26.798Z,4.75
2018-02-03T14:30:26.958Z,4.75
2018-02-03T14:31:26.762Z,4.78
2018-02-03T14:32:26.677Z,4.75
2018-02-03T14:33:29.484Z,4.74
2018-02-03T14:34:26.645Z,4.74
2018-02-03T14:35:26.990Z,4.73
2018-02-03T14:36:26.921Z,4.73
2018-02-03T14:37:26.698Z,4.73
2018-02-03T14:38:26.834Z,4.72
2018-02-03T14:39:26.925Z,4.69
2018-02-03T14:40:26.654Z,4.69
2018-02-03T14:41:26.704Z,4.68
2018-02-03T14:42:27.501Z,4.68
2018-02-03T14:43:26.983Z,4.68
2018-02-03T14:44:31.037Z,4.68
2018-02-03T14:45:26.911Z,4.67
2018-02-03T14:46:26.694Z,4.67
2018-02-03T14:47:26.629Z,4.67
2018-02-03T14:48:26.852Z,4.68
2018-02-03T14:49:26.921Z,4.66
2018-02-03T14:50:26.745Z,4.66
2018-02-03T14:51:26.740Z,4.61
2018-02-03T14:52:26.865Z,4.59
2018-02-03T14:53:26.942Z,4.59
2018-02-03T14:54:26.710Z,4.56
2018-02-03T14:55:26.811Z,4.53
2018-02-03T14:56:26.925Z,4.5
2018-02-03T14:57:26.673Z,4.47
2018-02-03T14:58:26.801Z,4.48
2018-02-03T14:59:26.791Z,4.39
2018-02-03T15:00:27.266Z,4.2
2018-02-03T15:01:26.709Z,4
2018-02-03T15:02:26.747Z,3.88
2018-02-03T15:03:26.826Z,3.75
2018-02-03T15:04:26.828Z,3.58
2018-02-03T15:05:26.651Z,3.51
2018-02-03T15:06:26.876Z,3.3
2018-02-03T15:07:27.087Z,3.27
2018-02-03T15:08:26.687Z,3.24
2018-02-03T15:09:26.934Z,3.1
2018-02-03T15:10:26.873Z,3.05
2018-02-03T15:11:27.041Z,2.91
2018-02-03T15:12:26.680Z,2.79
2018-02-03T15:13:26.708Z,2.77
2018-02-03T15:14:26.734Z,2.72
2018-02-03T15:15:27.052Z,2.74
2018-02-03T15:16:26.944Z,2.8
2018-02-03T15:17:26.718Z,2.81
2018-02-03T15:18:26.915Z,2.82
2018-02-03T15:19:25.922Z,2.86
2018-02-03T15:20:26.152Z,2.92
2018-02-03T15:21:25.965Z,2.84
2018-02-03T15:22:26.088Z,2.88
2018-02-03T15:23:26.278Z,2.87
2018-02-03T15:24:26.080Z,2.89
2018-02-03T15:25:26.050Z,2.96
2018-02-03T15:26:26.158Z,2.95
2018-02-03T15:27:26.042Z,3
2018-02-03T15:28:26.156Z,3.02
2018-02-03T15:29:25.906Z,3.04
2018-02-03T15:30:26.050Z,3.08
2018-02-03T15:31:25.907Z,3.1
2018-02-03T15:32:26.406Z,3.15
2018-02-03T15:33:26.194Z,3.19
2018-02-03T15:34:26.073Z,3.25
2018-02-03T15:35:26.244Z,3.22
2018-02-03T15:36:26.239Z,3.28
2018-02-03T15:37:26.047Z,3.26
2018-02-03T15:38:25.889Z,3.26
2018-02-03T15:39:26.090Z,3.29
2018-02-03T15:40:26.158Z,3.26
2018-02-03T15:41:26.298Z,3.3
2018-02-03T15:42:26.046Z,3.35
2018-02-03T15:43:26.225Z,3.36
2018-02-03T15:44:26.099Z,3.39
2018-02-03T15:45:26.339Z,3.38
2018-02-03T15:46:26.091Z,3.37
2018-02-03T15:47:26.296Z,3.35
2018-02-03T15:48:26.170Z,3.33
2018-02-03T15:49:26.216Z,3.37
2018-02-03T15:50:26.312Z,3.35
2018-02-03T15:51:26.466Z,3.36
2018-02-03T15:52:26.309Z,3.37
2018-02-03T15:53:26.377Z,3.38
2018-02-03T15:54:26.469Z,3.37
2018-02-03T15:55:26.244Z,3.38
2018-02-03T15:56:26.235Z,3.35
2018-02-03T15:57:26.404Z,3.33
2018-02-03T15:58:26.423Z,3.37
2018-02-03T15:59:26.533Z,3.33
2018-02-03T16:00:26.440Z,3.33
2018-02-03T16:01:26.350Z,3.32
2018-02-03T16:02:26.321Z,3.31
2018-02-03T16:03:26.276Z,3.25
2018-02-03T16:04:26.221Z,3.28
2018-02-03T16:05:26.281Z,3.25
2018-02-03T16:06:26.364Z,3.26
2018-02-03T16:07:26.677Z,3.29
2018-02-03T16:10:47.594Z,3.27
2018-02-03T16:11:26.570Z,3.31
2018-02-03T16:12:26.236Z,3.3
2018-02-03T16:13:26.367Z,3.29
2018-02-03T16:14:26.153Z,3.27
2018-02-03T16:16:26.182Z,3.27
2018-02-03T16:17:26.197Z,3.26
2018-02-03T16:18:26.425Z,3.22
2018-02-03T16:19:26.274Z,3.25
2018-02-03T16:20:26.469Z,3.25
2018-02-03T16:21:26.473Z,3.27
2018-02-03T16:22:26.278Z,3.27
2018-02-03T16:23:26.558Z,3.31
2018-02-03T16:24:26.371Z,3.26
2018-02-03T16:25:26.333Z,3.23
2018-02-03T16:26:26.305Z,3.21
2018-02-03T16:27:26.404Z,3.25
2018-02-03T16:28:26.547Z,3.29
2018-02-03T16:29:26.441Z,3.25
2018-02-03T16:30:26.240Z,3.25
2018-02-03T16:31:26.375Z,3.24
2018-02-03T16:32:26.473Z,3.19
2018-02-03T16:33:26.687Z,3.23
2018-02-03T16:34:26.651Z,3.24
2018-02-03T16:35:26.368Z,3.23
2018-02-03T16:36:26.394Z,3.25
2018-02-03T16:37:26.748Z,3.24
2018-02-03T16:38:26.439Z,3.26
2018-02-03T16:39:26.532Z,3.26
2018-02-03T16:40:26.508Z,3.25
2018-02-03T16:41:26.688Z,3.29
2018-02-03T16:42:26.522Z,3.22
2018-02-03T16:43:26.688Z,3.21
2018-02-03T16:44:26.478Z,3.24
2018-02-03T16:45:26.649Z,3.3
2018-02-03T16:46:26.722Z,3.29
2018-02-03T16:47:26.529Z,3.29
2018-02-03T16:48:26.489Z,3.37
2018-02-03T16:49:26.332Z,3.37
2018-02-03T16:50:26.492Z,3.43
2018-02-03T16:51:26.488Z,3.37
2018-02-03T16:52:26.648Z,3.37
2018-02-03T16:53:26.606Z,3.4
2018-02-03T16:54:27.082Z,3.43
2018-02-03T16:55:26.834Z,3.45
2018-02-03T16:56:26.645Z,3.46
2018-02-03T16:57:26.634Z,3.47
2018-02-03T16:58:26.448Z,3.48
2018-02-03T16:59:26.687Z,3.48
2018-02-03T17:00:26.665Z,3.5
2018-02-03T17:01:26.432Z,3.49
2018-02-03T17:02:26.655Z,3.48
2018-02-03T17:03:26.726Z,3.49
2018-02-03T17:04:26.541Z,3.49
2018-02-03T17:05:26.431Z,3.47
2018-02-03T17:06:26.613Z,3.43
2018-02-03T17:07:26.778Z,3.42
2018-02-03T17:08:26.548Z,3.37
2018-02-03T17:09:26.550Z,3.35
2018-02-03T17:10:26.578Z,3.31
2018-02-03T17:11:26.494Z,3.33
2018-02-03T17:12:26.367Z,3.36
2018-02-03T17:13:26.388Z,3.33
2018-02-03T17:14:26.511Z,3.29
2018-02-03T17:15:26.549Z,3.23
2018-02-03T17:16:26.318Z,3.23
2018-02-03T17:17:26.556Z,3.22
2018-02-03T17:18:26.354Z,3.21
2018-02-03T17:19:26.464Z,3.17
2018-02-03T17:20:26.587Z,3.21
2018-02-03T17:21:26.935Z,3.19
2018-02-03T17:22:26.583Z,3.22
2018-02-03T17:23:26.730Z,3.23
2018-02-03T17:24:26.737Z,3.26
2018-02-03T17:25:27.439Z,3.25
2018-02-03T17:26:26.665Z,3.27
2018-02-03T17:27:27.076Z,3.29
2018-02-03T17:28:27.415Z,3.27
2018-02-03T17:29:26.877Z,3.25
2018-02-03T17:30:26.727Z,3.25
2018-02-03T17:31:26.610Z,3.29
2018-02-03T17:32:26.936Z,3.24
2018-02-03T17:33:27.041Z,3.24
2018-02-03T17:34:27.556Z,3.26
2018-02-03T17:35:26.845Z,3.25
2018-02-03T17:36:26.651Z,3.29
2018-02-03T17:37:27.283Z,3.3
2018-02-03T17:38:26.933Z,3.31
2018-02-03T17:39:26.923Z,3.35
2018-02-03T17:40:26.776Z,3.35
2018-02-03T17:41:26.773Z,3.37
2018-02-03T17:42:27.030Z,3.4
2018-02-03T17:43:26.628Z,3.42
2018-02-03T17:44:26.931Z,3.47
2018-02-03T17:45:27.388Z,3.47
2018-02-03T17:46:26.944Z,3.49
2018-02-03T17:47:26.836Z,3.49
2018-02-03T17:48:27.025Z,3.52
2018-02-03T17:49:26.642Z,3.52
2018-02-03T17:50:27.584Z,3.47
2018-02-03T17:51:26.752Z,3.45
2018-02-03T17:52:26.923Z,3.46
2018-02-03T17:53:26.600Z,3.46
2018-02-03T17:54:26.780Z,3.46
2018-02-03T17:55:26.834Z,3.41
2018-02-03T17:56:26.854Z,3.41
2018-02-03T17:57:26.669Z,3.39
2018-02-03T17:58:26.786Z,3.34
2018-02-03T17:59:26.667Z,3.34
2018-02-03T18:00:26.599Z,3.34
2018-02-03T18:01:26.693Z,3.34
2018-02-03T18:02:26.865Z,3.3
2018-02-03T18:03:26.822Z,3.26
2018-02-03T18:04:27.332Z,3.27
2018-02-03T18:05:26.708Z,3.24
2018-02-03T18:06:26.685Z,3.25
2018-02-03T18:07:26.735Z,3.26
2018-02-03T18:08:26.916Z,3.25
2018-02-03T18:09:26.677Z,3.29
2018-02-03T18:10:26.516Z,3.26
2018-02-03T18:11:26.725Z,3.25
2018-02-03T18:12:26.988Z,3.29
2018-02-03T18:13:26.686Z,3.29
2018-02-03T18:14:26.643Z,3.31
2018-02-03T18:15:26.646Z,3.34
2018-02-03T18:16:26.742Z,3.3
2018-02-03T18:17:26.592Z,3.31
2018-02-03T18:18:26.875Z,3.31
2018-02-03T18:19:26.727Z,3.27
2018-02-03T18:20:26.789Z,3.28
2018-02-03T18:21:26.625Z,3.24
2018-02-03T18:22:26.748Z,3.23
2018-02-03T18:23:26.902Z,3.21
2018-02-03T18:24:26.795Z,3.17
2018-02-03T18:25:27.312Z,3.18
2018-02-03T18:26:26.919Z,3.17
2018-02-03T18:27:26.708Z,3.16
2018-02-03T18:28:26.835Z,3.18
2018-02-03T18:29:27.212Z,3.17
2018-02-03T18:30:26.890Z,3.15
2018-02-03T18:31:27.551Z,3.11
2018-02-03T18:32:26.884Z,3.11
2018-02-03T18:33:26.824Z,3.11
2018-02-03T18:34:26.955Z,3.11
2018-02-03T18:35:26.720Z,3.07
2018-02-03T18:36:26.935Z,3.1
2018-02-03T18:37:26.658Z,3.07
2018-02-03T18:38:26.730Z,3.09
2018-02-03T18:39:26.970Z,3.06
2018-02-03T18:40:26.977Z,3.06
2018-02-03T18:41:26.890Z,3.05
2018-02-03T18:42:26.912Z,3.06
2018-02-03T18:43:26.828Z,3.04
2018-02-03T18:44:26.978Z,3
2018-02-03T18:45:26.871Z,3.01
2018-02-03T18:46:26.799Z,2.99
2018-02-03T18:47:26.675Z,3
2018-02-03T18:48:31.288Z,2.99
2018-02-03T18:49:28.082Z,3
2018-02-03T18:50:26.792Z,3.01
2018-02-03T18:51:31.989Z,3.05
2018-02-03T18:52:25.949Z,3
2018-02-03T18:53:26.108Z,3.02
2018-02-03T18:54:25.874Z,3.03
2018-02-03T18:55:25.960Z,3.03
2018-02-03T18:56:25.964Z,3
2018-02-03T18:57:26.140Z,2.98
2018-02-03T18:58:26.093Z,2.99
2018-02-03T18:59:26.152Z,2.93
2018-02-03T19:00:25.983Z,3
2018-02-03T19:01:26.161Z,3
2018-02-03T19:02:26.034Z,3.04
2018-02-03T19:03:25.983Z,3
2018-02-03T19:04:26.080Z,2.99
2018-02-03T19:05:26.087Z,2.99
2018-02-03T19:06:26.122Z,3.04
2018-02-03T19:07:25.944Z,3.02
2018-02-03T19:08:26.275Z,3.04
2018-02-03T19:09:25.854Z,3.06
2018-02-03T19:10:26.124Z,3.03
2018-02-03T19:11:25.912Z,3.05
2018-02-03T19:12:26.006Z,3.05
2018-02-03T19:13:26.111Z,3.06
2018-02-03T19:14:26.069Z,3.07
2018-02-03T19:15:26.251Z,3.06
2018-02-03T19:16:26.631Z,3.07
2018-02-03T19:17:26.135Z,3.06
2018-02-03T19:18:25.975Z,3.07
2018-02-03T19:19:26.036Z,3.05
2018-02-03T19:20:26.075Z,3.06
2018-02-03T19:21:26.222Z,3.06
2018-02-03T19:22:26.406Z,3.07
2018-02-03T19:23:26.584Z,3.06
2018-02-03T19:24:26.436Z,3.06
2018-02-03T19:25:26.752Z,3.07
2018-02-03T19:26:26.530Z,3.06
2018-02-03T19:27:26.516Z,3.05
2018-02-03T19:28:26.728Z,3.06
2018-02-03T19:29:26.471Z,3.02
2018-02-03T19:30:26.453Z,3.05
2018-02-03T19:31:26.439Z,3.04
2018-02-03T19:32:26.639Z,3.05
2018-02-03T19:33:26.503Z,3.05
2018-02-03T19:34:26.554Z,3.06
2018-02-03T19:35:26.528Z,3.04
2018-02-03T19:36:26.516Z,3.04
2018-02-03T19:37:26.462Z,3
2018-02-03T19:38:26.921Z,3.01
2018-02-03T19:39:26.516Z,3
2018-02-03T19:40:26.450Z,3
2018-02-03T19:41:27.203Z,3.04
2018-02-03T19:42:27.107Z,3
2018-02-03T19:43:26.543Z,3
2018-02-03T19:44:26.561Z,3.03
2018-02-03T19:45:26.490Z,3
2018-02-03T19:46:26.397Z,3
2018-02-03T19:47:26.675Z,3
2018-02-03T19:48:26.624Z,2.99
2018-02-03T19:49:26.441Z,3
2018-02-03T19:50:26.632Z,2.99
2018-02-03T19:51:26.792Z,3
2018-02-03T19:52:26.502Z,2.95
2018-02-03T19:53:26.532Z,2.99
2018-02-03T19:54:26.392Z,2.99
2018-02-03T19:55:26.715Z,2.97
2018-02-03T19:56:26.569Z,2.94
2018-02-03T19:57:26.508Z,3
2018-02-03T19:58:26.528Z,3
2018-02-03T19:59:26.472Z,3
2018-02-03T20:00:26.469Z,3.02
2018-02-03T20:01:26.419Z,3
2018-02-03T20:02:26.635Z,3.03
2018-02-03T20:03:26.440Z,3.03
2018-02-03T20:04:26.636Z,3.03
2018-02-03T20:05:26.611Z,3.03
2018-02-03T20:06:26.701Z,3
2018-02-03T20:07:26.761Z,2.99
2018-02-03T20:08:26.841Z,2.99
2018-02-03T20:09:26.491Z,3.02
2018-02-03T20:10:26.485Z,2.99
2018-02-03T20:11:26.644Z,2.99
2018-02-03T20:12:26.832Z,2.97
2018-02-03T20:13:26.654Z,2.98
2018-02-03T20:14:26.883Z,2.97
2018-02-03T20:15:26.727Z,2.97
2018-02-03T20:16:26.698Z,2.94
2018-02-03T20:17:26.527Z,2.97
2018-02-03T20:18:26.561Z,2.94
2018-02-03T20:19:26.572Z,2.94
2018-02-03T20:20:26.406Z,2.94
2018-02-03T20:21:26.755Z,2.94
2018-02-03T20:22:26.464Z,2.93
2018-02-03T20:23:27.471Z,2.94
2018-02-03T20:24:27.406Z,2.93
2018-02-03T20:25:26.555Z,2.94
2018-02-03T20:26:26.737Z,2.92
2018-02-03T20:27:26.589Z,2.94
2018-02-03T20:28:26.416Z,2.93
2018-02-03T20:29:26.834Z,2.94
2018-02-03T20:30:26.739Z,2.93
2018-02-03T20:31:26.694Z,2.94
2018-02-03T20:32:26.735Z,2.95
2018-02-03T20:33:26.667Z,2.94
2018-02-03T20:34:26.737Z,2.94
2018-02-03T20:35:26.492Z,2.94
2018-02-03T20:36:26.620Z,2.97
2018-02-03T20:37:26.663Z,2.99
2018-02-03T20:38:26.601Z,3
2018-02-03T20:39:26.472Z,3
2018-02-03T20:40:26.702Z,2.99
2018-02-03T20:41:26.432Z,3
2018-02-03T20:42:26.543Z,3.04
2018-02-03T20:43:26.684Z,3.05
2018-02-03T20:44:26.473Z,3.05
2018-02-03T20:45:26.280Z,3.06
2018-02-03T20:46:26.439Z,3.04
2018-02-03T20:47:26.639Z,3.04
2018-02-03T20:48:26.454Z,3.06
2018-02-03T20:49:26.540Z,3.06
2018-02-03T20:50:26.512Z,3.11
2018-02-03T20:51:26.537Z,3.08
2018-02-03T20:52:26.581Z,3.11
2018-02-03T20:53:26.448Z,3.12
2018-02-03T20:54:26.507Z,3.11
2018-02-03T20:55:26.418Z,3.12
2018-02-03T20:56:26.496Z,3.11
2018-02-03T20:57:26.525Z,3.11
2018-02-03T20:58:26.628Z,3.12
2018-02-03T20:59:26.481Z,3.15
2018-02-03T21:00:26.668Z,3.13
2018-02-03T21:01:26.595Z,3.15
2018-02-03T21:02:26.466Z,3.12
2018-02-03T21:03:26.587Z,3.17
2018-02-03T21:04:26.668Z,3.11
2018-02-03T21:05:26.650Z,3.15
2018-02-03T21:06:26.589Z,3.12
2018-02-03T21:07:26.529Z,3.17
2018-02-03T21:08:26.353Z,3.16
2018-02-03T21:09:26.586Z,3.16
2018-02-03T21:10:26.562Z,3.13
2018-02-03T21:11:26.417Z,3.18
2018-02-03T21:12:26.470Z,3.22
2018-02-03T21:13:27.306Z,3.23
2018-02-03T21:14:26.721Z,3.24
2018-02-03T21:15:26.444Z,3.23
2018-02-03T21:16:26.803Z,3.28
2018-02-03T21:17:26.583Z,3.27
2018-02-03T21:18:26.665Z,3.28
2018-02-03T21:19:26.618Z,3.28
2018-02-03T21:20:26.619Z,3.27
2018-02-03T21:21:26.466Z,3.23
2018-02-03T21:22:26.728Z,3.23
2018-02-03T21:23:26.711Z,3.23
2018-02-03T21:24:26.548Z,3.23
2018-02-03T21:25:26.367Z,3.2
2018-02-03T21:26:26.295Z,3.23
2018-02-03T21:27:26.495Z,3.23
2018-02-03T21:28:26.239Z,3.19
2018-02-03T21:29:26.268Z,3.21
2018-02-03T21:30:26.348Z,3.17
2018-02-03T21:31:26.511Z,3.18
2018-02-03T21:32:26.198Z,3.17
2018-02-03T21:33:26.500Z,3.19
2018-02-03T21:34:26.415Z,3.17
2018-02-03T21:35:27.446Z,3.2
2018-02-03T21:36:26.467Z,3.18
2018-02-03T21:37:26.320Z,3.18
2018-02-03T21:38:26.246Z,3.18
2018-02-03T21:39:26.538Z,3.2
2018-02-03T21:40:26.368Z,3.23
2018-02-03T21:41:26.423Z,3.23
2018-02-03T21:42:26.405Z,3.23
2018-02-03T21:43:26.298Z,3.25
2018-02-03T21:44:26.491Z,3.28
2018-02-03T21:45:26.536Z,3.23
2018-02-03T21:46:26.574Z,3.24
2018-02-03T21:47:26.516Z,3.25
2018-02-03T21:48:26.485Z,3.29
2018-02-03T21:49:26.262Z,3.28
2018-02-03T21:50:27.300Z,3.29
2018-02-03T21:51:27.507Z,3.29
2018-02-03T21:52:26.528Z,3.29
2018-02-03T21:53:26.654Z,3.28
2018-02-03T21:54:26.308Z,3.29
2018-02-03T21:55:28.976Z,3.29
2018-02-03T21:56:27.440Z,3.25
2018-02-03T21:57:26.153Z,3.27
2018-02-03T21:58:25.870Z,3.24
2018-02-03T21:59:26.189Z,3.27
2018-02-03T22:00:26.183Z,3.24
2018-02-03T22:01:26.115Z,3.25
2018-02-03T22:02:26.124Z,3.23
2018-02-03T22:03:26.196Z,3.24
2018-02-03T22:04:26.047Z,3.27
2018-02-03T22:05:25.922Z,3.24
2018-02-03T22:06:26.147Z,3.24
2018-02-03T22:07:26.173Z,3.24
2018-02-03T22:08:25.973Z,3.25
2018-02-03T22:09:26.004Z,3.27
2018-02-03T22:10:26.921Z,3.27
2018-02-03T22:11:26.123Z,3.23
2018-02-03T22:12:30.284Z,3.23
2018-02-03T22:13:28.719Z,3.23
2018-02-03T22:14:28.029Z,3.26
2018-02-03T22:15:26.179Z,3.23
2018-02-03T22:16:25.985Z,3.23
2018-02-03T22:17:26.339Z,3.23
2018-02-03T22:18:26.004Z,3.27
2018-02-03T22:19:26.035Z,3.27
2018-02-03T22:20:25.941Z,3.24
2018-02-03T22:21:26.959Z,3.27
2018-02-03T22:22:26.117Z,3.27
2018-02-03T22:23:26.413Z,3.28
2018-02-03T22:24:26.914Z,3.24
2018-02-03T22:25:27.287Z,3.25
2018-02-03T22:26:26.430Z,3.27
2018-02-03T22:27:27.583Z,3.26
2018-02-03T22:28:26.637Z,3.22
2018-02-03T22:29:26.787Z,3.21
2018-02-03T22:30:26.459Z,3.17
2018-02-03T22:31:30.702Z,3.17
2018-02-03T22:32:26.526Z,3.21
2018-02-03T22:33:26.381Z,3.16
2018-02-03T22:34:26.413Z,3.15
2018-02-03T22:35:26.535Z,3.16
2018-02-03T22:36:35.170Z,3.14
2018-02-03T22:37:28.584Z,3.13
2018-02-03T22:38:28.373Z,3.12
2018-02-03T22:39:30.183Z,3.12
2018-02-03T22:40:31.052Z,3.11
2018-02-03T22:41:27.902Z,3.15
2018-02-03T22:42:32.030Z,3.11
2018-02-03T22:43:26.593Z,3.11
2018-02-03T22:44:26.470Z,3.06
2018-02-03T22:45:27.717Z,3.05
2018-02-03T22:46:26.609Z,3.06
2018-02-03T22:47:27.666Z,3.04
2018-02-03T22:48:27.544Z,3.03
2018-02-03T22:49:27.142Z,3.05
2018-02-03T22:50:26.628Z,3.06
2018-02-03T22:51:26.519Z,3.05
2018-02-03T22:52:27.320Z,3.06
2018-02-03T22:53:27.414Z,3.06
2018-02-03T22:54:26.712Z,3.09
2018-02-03T22:55:27.366Z,3.1
2018-02-03T22:56:31.123Z,3.11
2018-02-03T22:57:26.277Z,3.09
2018-02-03T22:58:26.144Z,3.11
2018-02-03T22:59:27.453Z,3.14
2018-02-03T23:00:28.538Z,3.11
2018-02-03T23:01:26.918Z,3.11
2018-02-03T23:02:26.563Z,3.11
2018-02-03T23:03:26.268Z,3.09
2018-02-03T23:04:26.303Z,3.11
2018-02-03T23:05:27.799Z,3.11
2018-02-03T23:06:26.617Z,3.15
2018-02-03T23:07:26.331Z,3.11
2018-02-03T23:08:26.491Z,3.1
2018-02-03T23:09:26.106Z,3.1
2018-02-03T23:10:26.056Z,3.1
2018-02-03T23:11:26.166Z,3.09
2018-02-03T23:12:26.162Z,3.09
2018-02-03T23:13:26.234Z,3.09
2018-02-03T23:14:26.645Z,3.06
2018-02-03T23:15:26.220Z,3.06
2018-02-03T23:16:26.180Z,3.03
2018-02-03T23:17:26.173Z,3.09
2018-02-03T23:18:26.295Z,3.04
2018-02-03T23:19:26.225Z,3.07
2018-02-03T23:20:26.205Z,3.04
2018-02-03T23:21:26.535Z,3.05
2018-02-03T23:22:26.220Z,3.07
2018-02-03T23:23:26.286Z,3.06
2018-02-03T23:24:26.038Z,3.07
2018-02-03T23:25:26.215Z,3.05
2018-02-03T23:26:26.170Z,3.08
2018-02-03T23:27:26.315Z,3.04
2018-02-03T23:28:26.425Z,3.03
2018-02-03T23:29:26.599Z,3
2018-02-03T23:30:26.377Z,3.03
2018-02-03T23:31:26.500Z,3
2018-02-03T23:32:26.299Z,2.99
2018-02-03T23:33:26.308Z,2.98
2018-02-03T23:34:26.302Z,2.98
2018-02-03T23:35:26.409Z,2.97
2018-02-03T23:36:26.289Z,2.94
2018-02-03T23:37:26.488Z,2.96
2018-02-03T23:38:26.429Z,2.94
2018-02-03T23:39:26.501Z,2.97
2018-02-03T23:40:26.481Z,2.94
2018-02-03T23:41:26.782Z,2.94
2018-02-03T23:42:26.328Z,2.94
2018-02-03T23:43:26.452Z,2.92
2018-02-03T23:44:26.507Z,2.92
2018-02-03T23:45:26.316Z,2.93
2018-02-03T23:46:26.354Z,2.88
2018-02-03T23:47:26.462Z,2.91
2018-02-03T23:48:26.566Z,2.9
2018-02-03T23:49:26.266Z,2.86
2018-02-03T23:50:26.498Z,2.86
2018-02-03T23:51:26.350Z,2.85
2018-02-03T23:52:26.386Z,2.86
2018-02-03T23:53:26.584Z,2.82
2018-02-03T23:54:26.402Z,2.84
2018-02-03T23:55:26.320Z,2.86
2018-02-03T23:56:26.393Z,2.85
2018-02-03T23:57:26.293Z,2.86
2018-02-03T23:58:26.262Z,2.86
2018-02-03T23:59:26.177Z,2.86
